sensor_id;sensor_type;location;lat;lon;timestamp;pressure;altitude;pressure_sealevel;temperature;humidity
55191;BME280;41070;50.360;18.742;2023-04-26T16:23:46;98580.34;;;8.04;49.52
55191;BME280;41070;50.360;18.742;2023-04-26T16:26:57;98588.52;;;7.94;49.80
55191;BME280;41070;50.360;18.742;2023-04-26T16:30:05;98589.01;;;7.89;49.59
55191;BME280;41070;50.360;18.742;2023-04-26T16:33:13;98589.05;;;7.86;49.87
55191;BME280;41070;50.360;18.742;2023-04-26T16:36:21;98589.30;;;7.89;50.38
55191;BME280;41070;50.360;18.742;2023-04-26T16:39:30;98588.91;;;7.93;50.49
55191;BME280;41070;50.360;18.742;2023-04-26T16:42:18;98588.15;;;8.01;50.60
55191;BME280;41070;50.360;18.742;2023-04-26T16:45:26;98588.13;;;8.12;50.69
55191;BME280;41070;50.360;18.742;2023-04-26T16:48:35;98587.13;;;8.27;50.43
55191;BME280;41070;50.360;18.742;2023-04-26T16:51:42;98589.98;;;8.35;50.24
55191;BME280;41070;50.360;18.742;2023-04-26T16:54:51;98592.73;;;8.40;50.16
55191;BME280;41070;50.360;18.742;2023-04-26T16:57:59;98592.02;;;8.42;50.03
55191;BME280;41070;50.360;18.742;2023-04-26T17:01:07;98595.27;;;8.42;49.63
55191;BME280;41070;50.360;18.742;2023-04-26T17:04:15;98589.73;;;8.37;49.25
55191;BME280;41070;50.360;18.742;2023-04-26T17:07:23;98592.98;;;8.32;49.51
55191;BME280;41070;50.360;18.742;2023-04-26T17:10:34;98597.95;;;8.22;49.76
55191;BME280;41070;50.360;18.742;2023-04-26T17:13:42;98600.76;;;8.13;49.92
55191;BME280;41070;50.360;18.742;2023-04-26T17:16:50;98604.69;;;8.03;50.19
55191;BME280;41070;50.360;18.742;2023-04-26T17:19:58;98609.86;;;7.91;50.19
55191;BME280;41070;50.360;18.742;2023-04-26T17:23:08;98613.69;;;7.80;50.52
55191;BME280;41070;50.360;18.742;2023-04-26T17:26:17;98615.59;;;7.67;51.08
55191;BME280;41070;50.360;18.742;2023-04-26T17:29:26;98617.63;;;7.59;51.07
55191;BME280;41070;50.360;18.742;2023-04-26T17:32:34;98623.02;;;7.53;51.45
55191;BME280;41070;50.360;18.742;2023-04-26T17:35:42;98622.41;;;7.51;51.49
55191;BME280;41070;50.360;18.742;2023-04-26T17:38:50;98632.02;;;7.47;51.63
55191;BME280;41070;50.360;18.742;2023-04-26T17:41:59;98633.92;;;7.46;51.71
55191;BME280;41070;50.360;18.742;2023-04-26T17:45:07;98638.19;;;7.40;51.74
55191;BME280;41070;50.360;18.742;2023-04-26T17:48:15;98641.67;;;7.32;51.61
55191;BME280;41070;50.360;18.742;2023-04-26T17:51:24;98642.61;;;7.23;51.97
55191;BME280;41070;50.360;18.742;2023-04-26T17:54:32;98645.60;;;7.13;52.30
55191;BME280;41070;50.360;18.742;2023-04-26T17:57:43;98644.92;;;7.04;52.61
55191;BME280;41070;50.360;18.742;2023-04-26T18:00:52;98646.63;;;6.99;53.09
55191;BME280;41070;50.360;18.742;2023-04-26T18:04:01;98650.14;;;6.96;53.37
55191;BME280;41070;50.360;18.742;2023-04-26T18:06:49;98648.90;;;6.89;53.72
55191;BME280;41070;50.360;18.742;2023-04-26T18:09:57;98654.76;;;6.84;53.54
55191;BME280;41070;50.360;18.742;2023-04-26T18:13:08;98655.73;;;6.82;54.13
55191;BME280;41070;50.360;18.742;2023-04-26T18:16:19;98660.02;;;6.79;54.13
55191;BME280;41070;50.360;18.742;2023-04-26T18:19:27;98662.13;;;6.77;54.43
55191;BME280;41070;50.360;18.742;2023-04-26T18:22:35;98662.25;;;6.75;54.43
55191;BME280;41070;50.360;18.742;2023-04-26T18:25:43;98664.91;;;6.71;54.75
55191;BME280;41070;50.360;18.742;2023-04-26T18:28:31;98669.39;;;6.69;54.76
55191;BME280;41070;50.360;18.742;2023-04-26T18:35:51;98672.90;;;6.61;55.14
55191;BME280;41070;50.360;18.742;2023-04-26T18:39:20;98682.72;;;6.58;55.53
55191;BME280;41070;50.360;18.742;2023-04-26T18:49:00;98689.97;;;6.55;56.13
55191;BME280;41070;50.360;18.742;2023-04-26T18:52:08;98691.50;;;6.55;56.26
55191;BME280;41070;50.360;18.742;2023-04-26T18:55:17;98697.45;;;6.58;56.11
55191;BME280;41070;50.360;18.742;2023-04-26T18:58:25;98698.36;;;6.59;56.45
55191;BME280;41070;50.360;18.742;2023-04-26T19:01:33;98705.28;;;6.59;56.54
55191;BME280;41070;50.360;18.742;2023-04-26T19:04:41;98704.87;;;6.60;56.71
55191;BME280;41070;50.360;18.742;2023-04-26T19:07:50;98702.73;;;6.64;56.80
55191;BME280;41070;50.360;18.742;2023-04-26T19:10:59;98706.36;;;6.65;57.56
55191;BME280;41070;50.360;18.742;2023-04-26T19:26:15;98707.48;;;6.70;58.41
55191;BME280;41070;50.360;18.742;2023-04-26T19:29:23;98707.21;;;6.67;58.10
55191;BME280;41070;50.360;18.742;2023-04-26T19:32:32;98709.98;;;6.66;58.54
55191;BME280;41070;50.360;18.742;2023-04-26T19:35:41;98713.95;;;6.68;57.99
55191;BME280;41070;50.360;18.742;2023-04-26T19:41:56;98715.66;;;6.67;58.55
55191;BME280;41070;50.360;18.742;2023-04-26T19:45:04;98708.22;;;6.71;58.69
55191;BME280;41070;50.360;18.742;2023-04-26T19:48:12;98713.00;;;6.75;58.66
55191;BME280;41070;50.360;18.742;2023-04-26T19:51:20;98711.97;;;6.74;58.41
55191;BME280;41070;50.360;18.742;2023-04-26T19:58:36;98715.77;;;6.77;58.41
55191;BME280;41070;50.360;18.742;2023-04-26T20:01:18;98716.56;;;6.73;58.69
55191;BME280;41070;50.360;18.742;2023-04-26T20:08:22;98729.42;;;6.56;58.99
55191;BME280;41070;50.360;18.742;2023-04-26T20:11:51;98735.00;;;6.45;59.45
55191;BME280;41070;50.360;18.742;2023-04-26T20:19:19;98734.84;;;6.22;59.53
55191;BME280;41070;50.360;18.742;2023-04-26T20:22:26;98732.75;;;6.17;59.77
55191;BME280;41070;50.360;18.742;2023-04-26T20:25:33;98735.23;;;6.12;59.80
55191;BME280;41070;50.360;18.742;2023-04-26T20:28:41;98735.01;;;6.08;59.80
55191;BME280;41070;50.360;18.742;2023-04-26T20:31:47;98736.70;;;6.03;60.01
55191;BME280;41070;50.360;18.742;2023-04-26T20:34:54;98733.85;;;6.01;59.81
55191;BME280;41070;50.360;18.742;2023-04-26T20:38:01;98738.66;;;5.95;59.91
55191;BME280;41070;50.360;18.742;2023-04-26T20:41:09;98741.25;;;5.89;59.88
55191;BME280;41070;50.360;18.742;2023-04-26T20:44:08;98736.94;;;5.83;59.94
55191;BME280;41070;50.360;18.742;2023-04-26T20:47:15;98738.00;;;5.80;59.97
55191;BME280;41070;50.360;18.742;2023-04-26T20:50:21;98732.16;;;5.75;60.04
55191;BME280;41070;50.360;18.742;2023-04-26T20:53:28;98732.49;;;5.73;60.17
55191;BME280;41070;50.360;18.742;2023-04-26T20:56:35;98736.41;;;5.69;60.15
55191;BME280;41070;50.360;18.742;2023-04-26T20:59:42;98738.52;;;5.66;60.28
55191;BME280;41070;50.360;18.742;2023-04-26T21:02:48;98744.42;;;5.61;60.37
55191;BME280;41070;50.360;18.742;2023-04-26T21:05:55;98746.52;;;5.59;60.35
55191;BME280;41070;50.360;18.742;2023-04-26T21:09:02;98744.73;;;5.56;60.45
55191;BME280;41070;50.360;18.742;2023-04-26T21:12:09;98746.19;;;5.50;60.84
55191;BME280;41070;50.360;18.742;2023-04-26T21:15:16;98748.84;;;5.44;61.01
55191;BME280;41070;50.360;18.742;2023-04-26T21:18:22;98753.12;;;5.39;61.13
55191;BME280;41070;50.360;18.742;2023-04-26T21:21:28;98752.84;;;5.37;61.30
55191;BME280;41070;50.360;18.742;2023-04-26T21:24:35;98758.73;;;5.34;61.45
55191;BME280;41070;50.360;18.742;2023-04-26T21:27:42;98757.30;;;5.22;61.68
55191;BME280;41070;50.360;18.742;2023-04-26T21:30:49;98754.81;;;5.10;62.06
55191;BME280;41070;50.360;18.742;2023-04-26T21:33:57;98760.92;;;5.02;62.29
55191;BME280;41070;50.360;18.742;2023-04-26T21:36:56;98764.33;;;4.93;62.26
55191;BME280;41070;50.360;18.742;2023-04-26T21:40:04;98761.77;;;4.85;62.94
55191;BME280;41070;50.360;18.742;2023-04-26T21:43:11;98764.37;;;4.79;63.10
55191;BME280;41070;50.360;18.742;2023-04-26T21:46:18;98768.41;;;4.74;63.20
55191;BME280;41070;50.360;18.742;2023-04-26T21:49:24;98773.28;;;4.71;63.19
55191;BME280;41070;50.360;18.742;2023-04-26T21:52:31;98771.87;;;4.70;63.77
55191;BME280;41070;50.360;18.742;2023-04-26T21:55:40;98774.70;;;4.69;63.87
55191;BME280;41070;50.360;18.742;2023-04-26T21:58:26;98773.80;;;4.72;64.04
55191;BME280;41070;50.360;18.742;2023-04-26T22:01:33;98773.98;;;4.76;64.16
55191;BME280;41070;50.360;18.742;2023-04-26T22:04:40;98777.13;;;4.83;64.53
55191;BME280;41070;50.360;18.742;2023-04-26T22:07:47;98776.23;;;4.87;64.48
55191;BME280;41070;50.360;18.742;2023-04-26T22:10:53;98783.24;;;4.91;64.89
55191;BME280;41070;50.360;18.742;2023-04-26T22:14:00;98788.27;;;4.96;65.01
55191;BME280;41070;50.360;18.742;2023-04-26T22:17:07;98790.30;;;5.03;64.94
55191;BME280;41070;50.360;18.742;2023-04-26T22:20:15;98794.95;;;5.08;65.16
55191;BME280;41070;50.360;18.742;2023-04-26T22:23:22;98795.80;;;5.11;65.08
55191;BME280;41070;50.360;18.742;2023-04-26T22:26:29;98803.52;;;5.16;64.53
55191;BME280;41070;50.360;18.742;2023-04-26T22:29:35;98804.81;;;5.20;64.42
55191;BME280;41070;50.360;18.742;2023-04-26T22:32:43;98807.05;;;5.27;65.00
55191;BME280;41070;50.360;18.742;2023-04-26T22:35:49;98806.48;;;5.30;65.66
55191;BME280;41070;50.360;18.742;2023-04-26T22:39:20;98810.23;;;5.33;66.11
55191;BME280;41070;50.360;18.742;2023-04-26T22:41:44;98810.48;;;5.37;66.42
55191;BME280;41070;50.360;18.742;2023-04-26T22:44:52;98810.29;;;5.31;66.82
55191;BME280;41070;50.360;18.742;2023-04-26T22:47:59;98806.20;;;5.25;66.65
55191;BME280;41070;50.360;18.742;2023-04-26T22:51:07;98811.55;;;5.23;66.55
55191;BME280;41070;50.360;18.742;2023-04-26T22:54:13;98809.05;;;5.20;66.65
55191;BME280;41070;50.360;18.742;2023-04-26T22:57:20;98809.26;;;5.18;66.81
55191;BME280;41070;50.360;18.742;2023-04-26T23:00:27;98813.49;;;5.17;66.84
55191;BME280;41070;50.360;18.742;2023-04-26T23:03:34;98811.39;;;5.14;67.02
55191;BME280;41070;50.360;18.742;2023-04-26T23:06:41;98815.06;;;5.18;66.93
55191;BME280;41070;50.360;18.742;2023-04-26T23:09:47;98813.30;;;5.19;67.32
55191;BME280;41070;50.360;18.742;2023-04-26T23:13:00;98814.63;;;5.13;67.13
55191;BME280;41070;50.360;18.742;2023-04-26T23:16:06;98817.27;;;5.11;66.90
55191;BME280;41070;50.360;18.742;2023-04-26T23:22:20;98824.70;;;5.06;66.79
55191;BME280;41070;50.360;18.742;2023-04-26T23:25:27;98824.81;;;5.04;66.86
55191;BME280;41070;50.360;18.742;2023-04-26T23:28:33;98829.80;;;5.02;66.91
55191;BME280;41070;50.360;18.742;2023-04-26T23:31:42;98828.24;;;5.00;67.03
55191;BME280;41070;50.360;18.742;2023-04-26T23:34:47;98827.92;;;4.98;66.97
55191;BME280;41070;50.360;18.742;2023-04-26T23:37:54;98829.77;;;4.95;67.28
55191;BME280;41070;50.360;18.742;2023-04-26T23:41:01;98829.45;;;4.95;67.11
55191;BME280;41070;50.360;18.742;2023-04-26T23:44:07;98833.14;;;4.97;67.31
55191;BME280;41070;50.360;18.742;2023-04-26T23:47:14;98832.14;;;4.96;67.69
55191;BME280;41070;50.360;18.742;2023-04-26T23:50:21;98834.05;;;4.96;67.93
55191;BME280;41070;50.360;18.742;2023-04-26T23:53:28;98835.63;;;4.94;68.07
55191;BME280;41070;50.360;18.742;2023-04-26T23:56:34;98836.33;;;4.93;68.42
55191;BME280;41070;50.360;18.742;2023-04-26T23:59:41;98844.17;;;4.88;69.32
